createdAt,value
2019-03-29T09:08:47.037Z,1026.75
2019-03-29T09:09:47.013Z,1026.72
2019-03-29T09:10:47.002Z,1026.72
2019-03-29T09:11:46.991Z,1026.67
2019-03-29T09:12:46.991Z,1026.61
2019-03-29T09:13:46.968Z,1026.66
2019-03-29T09:14:46.960Z,1026.66
2019-03-29T09:15:46.947Z,1026.61
2019-03-29T09:16:47.050Z,1026.62
2019-03-29T09:17:46.940Z,1026.62
2019-03-29T09:18:46.916Z,1026.65
2019-03-29T09:19:46.902Z,1026.67
2019-03-29T09:20:46.891Z,1026.66
2019-03-29T09:21:46.885Z,1026.69
2019-03-29T09:22:46.877Z,1026.58
2019-03-29T09:23:46.866Z,1026.52
2019-03-29T09:24:46.846Z,1026.63
2019-03-29T09:25:46.837Z,1026.56
2019-03-29T09:26:46.826Z,1026.53
2019-03-29T09:27:46.813Z,1026.52
2019-03-29T09:28:46.811Z,1026.58
2019-03-29T09:29:46.792Z,1026.51
2019-03-29T09:30:46.780Z,1026.51
2019-03-29T09:31:46.775Z,1026.50
2019-03-29T09:32:46.807Z,1026.50
2019-03-29T09:33:46.758Z,1026.55
2019-03-29T09:34:46.736Z,1026.52
2019-03-29T09:35:46.728Z,1026.56
2019-03-29T09:36:46.718Z,1026.47
2019-03-29T09:37:46.702Z,1026.49
2019-03-29T09:38:46.702Z,1026.51
2019-03-29T09:39:46.681Z,1026.44
2019-03-29T09:40:57.799Z,1026.51
2019-03-29T09:41:47.658Z,1026.40
2019-03-29T09:42:46.648Z,1026.37
2019-03-29T09:43:46.650Z,1026.42
2019-03-29T09:44:46.627Z,1026.40
2019-03-29T09:45:46.613Z,1026.35
2019-03-29T09:46:46.604Z,1026.39
2019-03-29T09:47:46.591Z,1026.40
2019-03-29T09:48:46.590Z,1026.36
2019-03-29T09:49:46.569Z,1026.44
2019-03-29T09:50:50.399Z,1026.42
2019-03-29T09:51:46.546Z,1026.38
2019-03-29T09:52:46.538Z,1026.46
2019-03-29T09:53:46.535Z,1026.36
2019-03-29T09:54:46.522Z,1026.35
2019-03-29T09:55:46.502Z,1026.45
2019-03-29T09:56:48.307Z,1026.49
2019-03-29T09:57:46.482Z,1026.43
2019-03-29T09:58:46.479Z,1026.52
2019-03-29T09:59:46.458Z,1026.46
2019-03-29T10:00:46.448Z,1026.36
2019-03-29T10:01:46.436Z,1026.41
2019-03-29T10:02:46.426Z,1026.36
2019-03-29T10:03:46.422Z,1026.46
2019-03-29T10:04:46.404Z,1026.36
2019-03-29T10:05:46.392Z,1026.37
2019-03-29T10:06:46.382Z,1026.29
2019-03-29T10:07:46.371Z,1026.29
2019-03-29T10:08:46.368Z,1026.30
2019-03-29T10:09:46.350Z,1026.18
2019-03-29T10:10:46.343Z,1026.10
2019-03-29T10:11:46.327Z,1026.15
2019-03-29T10:12:46.345Z,1026.15
2019-03-29T10:13:46.320Z,1026.07
2019-03-29T10:14:46.294Z,1026.06
2019-03-29T10:15:46.286Z,1026.02
2019-03-29T10:16:46.275Z,1026.05
2019-03-29T10:17:46.263Z,1026.04
2019-03-29T10:18:46.251Z,1026.01
2019-03-29T10:19:49.621Z,1026.04
2019-03-29T10:20:46.232Z,1026.01
2019-03-29T10:21:46.220Z,1026.00
2019-03-29T10:22:46.207Z,1026.04
2019-03-29T10:23:46.203Z,1026.03
2019-03-29T10:24:46.207Z,1025.99
2019-03-29T10:25:46.175Z,1025.95
2019-03-29T10:26:46.164Z,1025.85
2019-03-29T10:27:46.158Z,1025.82
2019-03-29T10:28:46.148Z,1025.85
2019-03-29T10:29:46.143Z,1025.85
2019-03-29T10:30:46.990Z,1025.80
2019-03-29T10:31:46.122Z,1025.79
2019-03-29T10:32:46.101Z,1025.79
2019-03-29T10:33:48.822Z,1025.75
2019-03-29T10:34:46.086Z,1025.72
2019-03-29T10:35:51.908Z,1025.74
2019-03-29T10:36:47.058Z,1025.81
2019-03-29T10:37:46.046Z,1025.81
2019-03-29T10:38:46.035Z,1025.75
2019-03-29T10:39:46.033Z,1025.75
2019-03-29T10:40:46.091Z,1025.74
2019-03-29T10:41:46.004Z,1025.68
2019-03-29T10:42:56.974Z,1025.67
2019-03-29T10:43:46.981Z,1025.64
2019-03-29T10:44:49.210Z,1025.68
2019-03-29T10:45:45.962Z,1025.67
2019-03-29T10:46:45.951Z,1025.70
2019-03-29T10:47:45.941Z,1025.63
2019-03-29T10:48:45.928Z,1025.61
2019-03-29T10:49:45.929Z,1025.58
2019-03-29T10:50:45.906Z,1025.54
2019-03-29T10:51:45.899Z,1025.59
2019-03-29T10:52:45.886Z,1025.60
2019-03-29T10:53:45.874Z,1025.71
2019-03-29T10:54:45.871Z,1025.65
2019-03-29T10:55:45.855Z,1025.65
2019-03-29T10:56:45.842Z,1025.66
2019-03-29T10:57:45.831Z,1025.65
2019-03-29T10:58:45.821Z,1025.61
2019-03-29T10:59:45.817Z,1025.59
2019-03-29T11:00:45.801Z,1025.63
2019-03-29T11:01:45.788Z,1025.62
2019-03-29T11:02:45.778Z,1025.62
2019-03-29T11:03:45.766Z,1025.59
2019-03-29T11:04:45.768Z,1025.61
2019-03-29T11:05:45.746Z,1025.58
2019-03-29T11:06:45.736Z,1025.53
2019-03-29T11:07:45.724Z,1025.60
2019-03-29T11:08:45.716Z,1025.57
2019-03-29T11:09:45.713Z,1025.59
2019-03-29T11:10:45.695Z,1025.55
2019-03-29T11:11:45.687Z,1025.58
2019-03-29T11:12:45.671Z,1025.55
2019-03-29T11:13:45.662Z,1025.64
2019-03-29T11:14:45.664Z,1025.56
2019-03-29T11:15:45.638Z,1025.51
2019-03-29T11:16:45.632Z,1025.55
2019-03-29T11:17:45.618Z,1025.55
2019-03-29T11:18:45.986Z,1025.54
2019-03-29T11:19:45.610Z,1025.56
2019-03-29T11:20:45.587Z,1025.55
2019-03-29T11:21:45.581Z,1025.48
2019-03-29T11:22:45.566Z,1025.43
2019-03-29T11:23:45.557Z,1025.49
2019-03-29T11:24:45.555Z,1025.43
2019-03-29T11:25:48.449Z,1025.43
2019-03-29T11:26:45.525Z,1025.48
2019-03-29T11:27:45.519Z,1025.46
2019-03-29T11:28:45.508Z,1025.43
2019-03-29T11:29:45.510Z,1025.36
2019-03-29T11:30:45.493Z,1025.35
2019-03-29T11:31:45.478Z,1025.32
2019-03-29T11:32:45.462Z,1025.33
2019-03-29T11:33:45.452Z,1025.25
2019-03-29T11:34:45.455Z,1025.24
2019-03-29T11:35:45.507Z,1025.23
2019-03-29T11:36:45.421Z,1025.24
2019-03-29T11:37:45.412Z,1025.22
2019-03-29T11:38:45.403Z,1025.26
2019-03-29T11:39:45.399Z,1025.18
2019-03-29T11:40:45.381Z,1025.12
2019-03-29T11:41:45.372Z,1025.13
2019-03-29T11:42:45.360Z,1025.10
2019-03-29T11:43:45.350Z,1025.11
2019-03-29T11:44:45.351Z,1025.07
2019-03-29T11:45:45.331Z,1025.02
2019-03-29T11:46:45.322Z,1025.04
2019-03-29T11:47:45.310Z,1025.06
2019-03-29T11:48:45.302Z,1025.04
2019-03-29T11:49:45.299Z,1025.01
2019-03-29T11:50:45.282Z,1025.00
2019-03-29T11:51:45.268Z,1025.04
2019-03-29T11:52:45.259Z,1025.06
2019-03-29T11:53:45.249Z,1024.97
2019-03-29T11:54:45.254Z,1024.95
2019-03-29T11:55:45.228Z,1024.94
2019-03-29T11:56:47.664Z,1024.96
2019-03-29T11:57:45.210Z,1024.94
2019-03-29T11:58:45.199Z,1024.96
2019-03-29T11:59:45.189Z,1024.95
2019-03-29T12:00:45.187Z,1024.97
2019-03-29T12:01:45.170Z,1024.91
2019-03-29T12:02:45.158Z,1024.96
2019-03-29T12:03:45.151Z,1024.87
2019-03-29T12:04:45.139Z,1024.94
2019-03-29T12:05:45.137Z,1024.95
2019-03-29T12:06:45.119Z,1024.87
2019-03-29T12:07:45.110Z,1024.87
2019-03-29T12:08:45.100Z,1024.85
2019-03-29T12:09:45.114Z,1024.84
2019-03-29T12:10:45.088Z,1024.83
2019-03-29T12:11:45.070Z,1024.75
2019-03-29T12:12:45.060Z,1024.80
2019-03-29T12:13:45.049Z,1024.73
2019-03-29T12:14:45.040Z,1024.86
2019-03-29T12:15:45.037Z,1024.88
2019-03-29T12:16:45.021Z,1024.76
2019-03-29T12:17:45.011Z,1024.71
2019-03-29T12:18:44.999Z,1024.73
2019-03-29T12:19:44.989Z,1024.76
2019-03-29T12:20:44.997Z,1024.72
2019-03-29T12:21:44.970Z,1024.72
2019-03-29T12:22:44.961Z,1024.76
2019-03-29T12:23:44.951Z,1024.70
2019-03-29T12:24:44.941Z,1024.69
2019-03-29T12:25:44.940Z,1024.68
2019-03-29T12:26:44.919Z,1024.64
2019-03-29T12:27:44.908Z,1024.60
2019-03-29T12:28:44.901Z,1024.62
2019-03-29T12:29:44.889Z,1024.56
2019-03-29T12:30:44.889Z,1024.55
2019-03-29T12:31:44.870Z,1024.58
2019-03-29T12:32:44.859Z,1024.48
2019-03-29T12:33:44.852Z,1024.49
2019-03-29T12:34:44.839Z,1024.47
2019-03-29T12:35:44.839Z,1024.46
2019-03-29T12:36:46.104Z,1024.48
2019-03-29T12:37:44.808Z,1024.42
2019-03-29T12:38:44.798Z,1024.31
2019-03-29T12:39:44.790Z,1024.43
2019-03-29T12:40:45.273Z,1024.43
2019-03-29T12:41:44.767Z,1024.43
2019-03-29T12:42:44.759Z,1024.35
2019-03-29T12:43:54.950Z,1024.36
2019-03-29T12:44:45.739Z,1024.30
2019-03-29T12:45:44.734Z,1024.26
2019-03-29T12:46:44.718Z,1024.21
2019-03-29T12:47:44.708Z,1024.15
2019-03-29T12:48:44.698Z,1024.15
2019-03-29T12:49:44.687Z,1024.15
2019-03-29T12:50:44.693Z,1024.10
2019-03-29T12:51:46.641Z,1024.06
2019-03-29T12:52:44.668Z,1023.96
2019-03-29T12:53:44.647Z,1023.84
2019-03-29T12:54:44.962Z,1023.76
2019-03-29T12:55:44.654Z,1023.85
2019-03-29T12:56:44.628Z,1023.80
2019-03-29T12:57:44.606Z,1023.76
2019-03-29T12:58:44.593Z,1023.80
2019-03-29T12:59:44.585Z,1023.73
2019-03-29T13:00:44.575Z,1023.82
2019-03-29T13:01:44.575Z,1023.86
2019-03-29T13:02:44.570Z,1023.81
2019-03-29T13:03:44.541Z,1023.86
2019-03-29T13:04:47.064Z,1023.76
2019-03-29T13:05:44.610Z,1023.70
2019-03-29T13:06:44.519Z,1023.77
2019-03-29T13:07:44.503Z,1023.71
2019-03-29T13:08:44.512Z,1023.62
2019-03-29T13:09:44.479Z,1023.62
2019-03-29T13:10:44.472Z,1023.58
2019-03-29T13:11:44.468Z,1023.51
2019-03-29T13:12:44.452Z,1023.51
2019-03-29T13:13:44.438Z,1023.42
2019-03-29T13:14:44.428Z,1023.38
2019-03-29T13:15:44.417Z,1023.42
2019-03-29T13:16:44.412Z,1023.48
2019-03-29T13:17:44.401Z,1023.40
2019-03-29T13:18:44.382Z,1023.31
2019-03-29T13:19:44.376Z,1023.42
2019-03-29T13:20:44.363Z,1023.31
2019-03-29T13:21:44.360Z,1023.31
2019-03-29T13:22:44.349Z,1023.34
2019-03-29T13:23:44.330Z,1023.27
2019-03-29T13:24:44.318Z,1023.33
2019-03-29T13:25:44.307Z,1023.26
2019-03-29T13:26:44.306Z,1023.22
2019-03-29T13:27:44.375Z,1023.18
2019-03-29T13:28:44.277Z,1023.20
2019-03-29T13:29:44.272Z,1023.17
2019-03-29T13:30:44.252Z,1023.09
2019-03-29T13:31:44.253Z,1023.19
2019-03-29T13:32:44.233Z,1023.16
2019-03-29T13:33:44.224Z,1023.19
2019-03-29T13:34:44.209Z,1023.14
2019-03-29T13:35:44.663Z,1023.06
2019-03-29T13:36:44.204Z,1023.11
2019-03-29T13:37:44.177Z,1023.12
2019-03-29T13:38:44.166Z,1023.11
2019-03-29T13:39:44.159Z,1023.02
2019-03-29T13:40:44.188Z,1023.10
2019-03-29T13:41:44.134Z,1023.06
2019-03-29T13:42:44.123Z,1023.01
2019-03-29T13:43:44.115Z,1023.04
2019-03-29T13:44:44.202Z,1023.02
2019-03-29T13:45:44.089Z,1022.89
2019-03-29T13:46:44.091Z,1022.94
2019-03-29T13:47:44.119Z,1022.89
2019-03-29T13:48:44.059Z,1022.89
2019-03-29T13:49:44.047Z,1022.88
2019-03-29T13:50:44.034Z,1022.80
2019-03-29T13:51:44.035Z,1022.82
2019-03-29T13:52:44.013Z,1022.86
2019-03-29T13:53:44.006Z,1022.80
2019-03-29T13:54:43.993Z,1022.76
2019-03-29T13:55:43.980Z,1022.71
2019-03-29T13:56:43.981Z,1022.67
2019-03-29T13:57:43.997Z,1022.63
2019-03-29T13:58:43.947Z,1022.72
2019-03-29T13:59:43.941Z,1022.63
2019-03-29T14:00:43.925Z,1022.56
2019-03-29T14:01:43.925Z,1022.63
2019-03-29T14:02:43.900Z,1022.64
2019-03-29T14:03:43.890Z,1022.53
2019-03-29T14:04:43.883Z,1022.50
2019-03-29T14:05:43.868Z,1022.54
2019-03-29T14:06:43.867Z,1022.42
2019-03-29T14:07:43.851Z,1022.50
2019-03-29T14:08:43.834Z,1022.50
2019-03-29T14:09:43.824Z,1022.45
2019-03-29T14:10:43.816Z,1022.45
2019-03-29T14:11:43.812Z,1022.43
2019-03-29T14:12:43.791Z,1022.43
2019-03-29T14:13:43.780Z,1022.41
2019-03-29T14:14:43.776Z,1022.42
2019-03-29T14:15:43.762Z,1022.39
2019-03-29T14:16:43.760Z,1022.42
2019-03-29T14:17:43.737Z,1022.42
2019-03-29T14:18:43.727Z,1022.43
2019-03-29T14:19:43.715Z,1022.36
2019-03-29T14:20:43.710Z,1022.30
2019-03-29T14:21:43.710Z,1022.39
2019-03-29T14:22:43.683Z,1022.36
2019-03-29T14:23:43.674Z,1022.29
2019-03-29T14:24:43.665Z,1022.28
2019-03-29T14:25:43.650Z,1022.19
2019-03-29T14:26:43.651Z,1022.31
2019-03-29T14:27:43.627Z,1022.29
2019-03-29T14:28:43.619Z,1022.23
2019-03-29T14:29:43.609Z,1022.27
2019-03-29T14:30:43.600Z,1022.15
2019-03-29T14:31:43.594Z,1022.13
2019-03-29T14:32:43.574Z,1022.17
2019-03-29T14:33:43.562Z,1022.15
2019-03-29T14:34:43.553Z,1022.10
2019-03-29T14:35:43.539Z,1022.04
2019-03-29T14:36:43.539Z,1022.06
2019-03-29T14:37:43.517Z,1021.99
2019-03-29T14:38:43.509Z,1022.09
2019-03-29T14:39:43.496Z,1022.04
2019-03-29T14:40:43.483Z,1022.02
2019-03-29T14:41:43.498Z,1022.02
2019-03-29T14:42:43.468Z,1022.01
2019-03-29T14:43:43.450Z,1021.96
2019-03-29T14:44:52.179Z,1022.03
2019-03-29T14:45:44.518Z,1022.03
2019-03-29T14:46:43.427Z,1022.09
2019-03-29T14:47:44.024Z,1021.99
2019-03-29T14:48:43.396Z,1022.03
2019-03-29T14:49:43.388Z,1022.00
2019-03-29T14:50:43.373Z,1021.93
2019-03-29T14:51:43.376Z,1021.97
2019-03-29T14:52:43.357Z,1021.92
2019-03-29T14:53:43.340Z,1021.88
2019-03-29T14:54:43.363Z,1021.85
2019-03-29T14:55:43.328Z,1021.87
2019-03-29T14:56:43.316Z,1021.87
2019-03-29T14:57:43.295Z,1021.90
2019-03-29T14:58:43.343Z,1021.80
2019-03-29T14:59:43.277Z,1021.82
2019-03-29T15:00:43.269Z,1021.82
2019-03-29T15:01:43.270Z,1021.82
2019-03-29T15:02:43.240Z,1021.80
2019-03-29T15:03:43.230Z,1021.77
2019-03-29T15:04:43.225Z,1021.69
2019-03-29T15:05:43.209Z,1021.85
2019-03-29T15:06:43.208Z,1021.78
2019-03-29T15:07:43.194Z,1021.76
2019-03-29T15:08:43.175Z,1021.76
2019-03-29T15:09:43.168Z,1021.70
2019-03-29T15:10:45.733Z,1021.71
2019-03-29T15:11:43.152Z,1021.72
2019-03-29T15:12:43.130Z,1021.71
2019-03-29T15:13:43.118Z,1021.73
2019-03-29T15:14:43.127Z,1021.76
2019-03-29T15:15:43.098Z,1021.65
2019-03-29T15:16:43.156Z,1021.65
2019-03-29T15:17:43.083Z,1021.62
2019-03-29T15:18:43.065Z,1021.67
2019-03-29T15:19:43.055Z,1021.59
2019-03-29T15:20:53.346Z,1021.55
2019-03-29T15:21:44.042Z,1021.58
2019-03-29T15:22:43.061Z,1021.59
2019-03-29T15:23:43.011Z,1021.55
2019-03-29T15:24:42.997Z,1021.54
2019-03-29T15:25:42.988Z,1021.51
2019-03-29T15:26:42.986Z,1021.51
2019-03-29T15:27:42.965Z,1021.45
2019-03-29T15:28:42.969Z,1021.42
2019-03-29T15:29:42.943Z,1021.45
2019-03-29T15:30:42.931Z,1021.42
2019-03-29T15:31:42.930Z,1021.43
2019-03-29T15:32:42.977Z,1021.41
2019-03-29T15:33:42.898Z,1021.38
2019-03-29T15:34:42.890Z,1021.39
2019-03-29T15:35:42.875Z,1021.37
2019-03-29T15:36:42.911Z,1021.35
2019-03-29T15:37:42.861Z,1021.34
2019-03-29T15:38:42.847Z,1021.27
2019-03-29T15:39:42.833Z,1021.30
2019-03-29T15:40:42.823Z,1021.24
2019-03-29T15:41:42.812Z,1021.24
2019-03-29T15:42:42.813Z,1021.21
2019-03-29T15:43:42.792Z,1021.24
2019-03-29T15:44:42.791Z,1021.30
2019-03-29T15:45:42.773Z,1021.25
2019-03-29T15:46:42.755Z,1021.19
2019-03-29T15:47:42.760Z,1021.27
2019-03-29T15:48:42.733Z,1021.22
2019-03-29T15:49:55.357Z,1021.23
2019-03-29T15:50:43.711Z,1021.20
2019-03-29T15:51:42.711Z,1021.22
2019-03-29T15:52:42.696Z,1021.16
2019-03-29T15:53:42.676Z,1021.22
2019-03-29T15:54:42.668Z,1021.16
2019-03-29T15:55:42.656Z,1021.14
2019-03-29T15:56:42.643Z,1021.17
2019-03-29T15:57:42.643Z,1021.09
2019-03-29T15:58:42.620Z,1021.10
2019-03-29T15:59:42.614Z,1021.05
2019-03-29T16:00:42.602Z,1021.06
2019-03-29T16:01:42.587Z,1021.04
2019-03-29T16:02:42.584Z,1021.05
2019-03-29T16:03:42.564Z,1021.12
2019-03-29T16:04:42.562Z,1021.09
2019-03-29T16:05:42.540Z,1021.06
2019-03-29T16:06:42.530Z,1021.05
2019-03-29T16:07:42.535Z,1021.05
2019-03-29T16:08:42.512Z,1021.01
2019-03-29T16:09:42.500Z,1021.02
2019-03-29T16:10:42.484Z,1021.03
2019-03-29T16:11:42.474Z,1020.98
2019-03-29T16:12:42.469Z,1021.04
2019-03-29T16:13:42.449Z,1020.99
2019-03-29T16:14:42.438Z,1020.92
2019-03-29T16:15:42.432Z,1020.95
2019-03-29T16:16:42.417Z,1020.96
2019-03-29T16:17:42.413Z,1020.92
2019-03-29T16:18:42.393Z,1020.90
2019-03-29T16:19:42.380Z,1020.88
2019-03-29T16:20:42.376Z,1020.95
2019-03-29T16:21:42.356Z,1020.82
2019-03-29T16:22:42.368Z,1020.90
2019-03-29T16:23:42.334Z,1020.86
2019-03-29T16:24:42.324Z,1020.85
2019-03-29T16:25:42.314Z,1020.87
2019-03-29T16:26:42.299Z,1020.80
2019-03-29T16:27:42.289Z,1020.82
2019-03-29T16:28:42.288Z,1020.81
2019-03-29T16:29:42.265Z,1020.72
2019-03-29T16:30:42.254Z,1020.77
2019-03-29T16:31:42.251Z,1020.82
2019-03-29T16:32:42.230Z,1020.84
2019-03-29T16:33:42.230Z,1020.83
2019-03-29T16:34:42.209Z,1020.80
2019-03-29T16:35:42.196Z,1020.86
2019-03-29T16:36:42.194Z,1020.81
2019-03-29T16:37:42.174Z,1020.82
2019-03-29T16:38:42.170Z,1020.84
2019-03-29T16:39:42.153Z,1020.84
2019-03-29T16:40:42.140Z,1020.86
2019-03-29T16:41:42.132Z,1020.87
2019-03-29T16:42:42.118Z,1020.86
2019-03-29T16:43:42.115Z,1020.82
2019-03-29T16:44:42.171Z,1020.82
2019-03-29T16:45:48.191Z,1020.79
2019-03-29T16:46:43.071Z,1020.80
2019-03-29T16:47:42.068Z,1020.76
2019-03-29T16:48:42.061Z,1020.77
2019-03-29T16:49:42.045Z,1020.79
2019-03-29T16:50:42.030Z,1020.80
2019-03-29T16:51:42.017Z,1020.76
2019-03-29T16:52:42.007Z,1020.79
2019-03-29T16:53:42.001Z,1020.87
2019-03-29T16:54:41.983Z,1020.89
2019-03-29T16:55:41.971Z,1020.82
2019-03-29T16:56:41.966Z,1020.76
2019-03-29T16:57:41.956Z,1020.78
2019-03-29T16:58:41.946Z,1020.79
2019-03-29T16:59:41.926Z,1020.82
2019-03-29T17:00:41.917Z,1020.76
2019-03-29T17:01:41.903Z,1020.81
2019-03-29T17:02:41.899Z,1020.79
2019-03-29T17:03:41.896Z,1020.83
2019-03-29T17:04:41.870Z,1020.83
2019-03-29T17:05:42.185Z,1020.74
2019-03-29T17:06:41.848Z,1020.75
2019-03-29T17:07:41.839Z,1020.84
2019-03-29T17:08:41.826Z,1020.83
2019-03-29T17:09:41.824Z,1020.75
2019-03-29T17:10:41.818Z,1020.79
2019-03-29T17:11:41.799Z,1020.79
2019-03-29T17:12:41.783Z,1020.87
2019-03-29T17:13:41.775Z,1020.80
2019-03-29T17:14:41.771Z,1020.82
2019-03-29T17:15:41.749Z,1020.80
2019-03-29T17:16:41.743Z,1020.82
2019-03-29T17:17:41.759Z,1020.78
2019-03-29T17:18:41.721Z,1020.84
2019-03-29T17:19:41.716Z,1020.76
2019-03-29T17:20:41.695Z,1020.69
2019-03-29T17:21:41.683Z,1020.73
2019-03-29T17:22:43.534Z,1020.70
2019-03-29T17:23:41.664Z,1020.68
2019-03-29T17:24:56.056Z,1020.71
2019-03-29T17:25:42.642Z,1020.73
2019-03-29T17:26:41.630Z,1020.75
2019-03-29T17:27:41.627Z,1020.72
2019-03-29T17:28:41.608Z,1020.72
2019-03-29T17:29:41.606Z,1020.77
2019-03-29T17:30:41.602Z,1020.77
2019-03-29T17:31:41.576Z,1020.81
2019-03-29T17:32:41.565Z,1020.77
2019-03-29T17:33:41.552Z,1020.73
2019-03-29T17:34:41.550Z,1020.71
2019-03-29T17:35:41.528Z,1020.71
2019-03-29T17:36:41.518Z,1020.72
2019-03-29T17:37:41.523Z,1020.74
2019-03-29T17:38:41.497Z,1020.71
2019-03-29T17:39:41.499Z,1020.73
2019-03-29T17:40:41.477Z,1020.71
2019-03-29T17:41:41.462Z,1020.66
2019-03-29T17:42:41.450Z,1020.68
2019-03-29T17:43:41.439Z,1020.67
2019-03-29T17:44:41.436Z,1020.68
2019-03-29T17:45:41.420Z,1020.71
2019-03-29T17:46:41.408Z,1020.69
2019-03-29T17:47:41.397Z,1020.69
2019-03-29T17:48:41.389Z,1020.71
2019-03-29T17:49:41.381Z,1020.75
2019-03-29T17:50:41.364Z,1020.76
2019-03-29T17:51:41.350Z,1020.76
2019-03-29T17:52:41.341Z,1020.77
2019-03-29T17:53:41.330Z,1020.79
2019-03-29T17:54:41.324Z,1020.72
2019-03-29T17:55:41.307Z,1020.73
2019-03-29T17:56:41.292Z,1020.71
2019-03-29T17:57:41.284Z,1020.72
2019-03-29T17:58:41.271Z,1020.75
2019-03-29T17:59:41.270Z,1020.68
2019-03-29T18:00:41.297Z,1020.72
2019-03-29T18:01:41.237Z,1020.67
2019-03-29T18:02:41.231Z,1020.72
2019-03-29T18:03:41.215Z,1020.72
2019-03-29T18:04:41.214Z,1020.76
2019-03-29T18:05:41.193Z,1020.73
2019-03-29T18:06:41.181Z,1020.76
2019-03-29T18:07:41.172Z,1020.79
2019-03-29T18:08:41.170Z,1020.78
2019-03-29T18:09:41.182Z,1020.79
2019-03-29T18:10:41.138Z,1020.78
2019-03-29T18:11:41.127Z,1020.78
2019-03-29T18:12:41.114Z,1020.82
2019-03-29T18:13:41.126Z,1020.83
2019-03-29T18:14:41.092Z,1020.85
2019-03-29T18:15:41.093Z,1020.87
2019-03-29T18:16:41.074Z,1020.83
2019-03-29T18:17:41.067Z,1020.85
2019-03-29T18:18:41.063Z,1020.89
2019-03-29T18:19:41.039Z,1020.89
2019-03-29T18:20:41.049Z,1020.88
2019-03-29T18:21:41.018Z,1020.92
2019-03-29T18:22:41.013Z,1020.92
2019-03-29T18:23:40.994Z,1020.88
2019-03-29T18:24:40.984Z,1020.93
2019-03-29T18:25:40.979Z,1020.88
2019-03-29T18:26:40.969Z,1020.99
2019-03-29T18:27:40.951Z,1020.94
2019-03-29T18:28:40.936Z,1020.93
2019-03-29T18:29:40.926Z,1020.94
2019-03-29T18:30:40.933Z,1020.98
2019-03-29T18:31:40.942Z,1020.94
2019-03-29T18:32:40.893Z,1020.94
2019-03-29T18:33:40.890Z,1020.95
2019-03-29T18:34:41.708Z,1020.99
2019-03-29T18:35:40.868Z,1020.94
2019-03-29T18:36:40.875Z,1020.95
2019-03-29T18:37:40.840Z,1020.96
2019-03-29T18:38:40.828Z,1020.95
2019-03-29T18:39:40.817Z,1020.93
2019-03-29T18:40:40.821Z,1020.96
2019-03-29T18:41:40.794Z,1020.95
2019-03-29T18:42:40.783Z,1020.90
2019-03-29T18:43:40.772Z,1020.93
2019-03-29T18:44:40.758Z,1020.88
2019-03-29T18:45:41.799Z,1020.91
2019-03-29T18:46:44.907Z,1020.93
2019-03-29T18:47:40.727Z,1020.92
2019-03-29T18:48:40.717Z,1020.97
2019-03-29T18:49:40.706Z,1020.98
2019-03-29T18:50:40.750Z,1020.95
2019-03-29T18:51:40.687Z,1020.91
2019-03-29T18:52:42.808Z,1020.88
2019-03-29T18:53:40.701Z,1020.93
2019-03-29T18:54:40.714Z,1020.96
2019-03-29T18:55:40.827Z,1020.90
2019-03-29T18:56:40.623Z,1020.97
2019-03-29T18:57:40.619Z,1020.96
2019-03-29T18:58:40.613Z,1020.95
2019-03-29T18:59:40.678Z,1021.07
2019-03-29T19:00:40.583Z,1020.98
2019-03-29T19:01:40.577Z,1021.07
2019-03-29T19:02:40.560Z,1021.01
2019-03-29T19:03:40.550Z,1020.95
2019-03-29T19:04:40.538Z,1020.98
2019-03-29T19:05:40.527Z,1020.99
2019-03-29T19:06:40.524Z,1021.00
2019-03-29T19:07:40.502Z,1021.01
2019-03-29T19:08:40.533Z,1020.95
2019-03-29T19:09:40.489Z,1020.95
2019-03-29T19:10:40.553Z,1020.99
2019-03-29T19:11:40.466Z,1020.99
2019-03-29T19:12:40.447Z,1021.04
2019-03-29T19:13:40.436Z,1020.93
2019-03-29T19:14:41.759Z,1020.97
2019-03-29T19:15:40.420Z,1020.99
2019-03-29T19:16:40.413Z,1020.93
2019-03-29T19:17:40.394Z,1021.03
2019-03-29T19:18:40.378Z,1021.00
2019-03-29T19:19:40.371Z,1021.07
2019-03-29T19:20:40.359Z,1021.07
2019-03-29T19:21:40.355Z,1021.00
2019-03-29T19:22:40.337Z,1021.04
2019-03-29T19:23:40.325Z,1021.02
2019-03-29T19:24:40.311Z,1021.04
2019-03-29T19:25:40.302Z,1021.02
2019-03-29T19:26:40.299Z,1021.04
2019-03-29T19:27:40.286Z,1021.05
2019-03-29T19:28:40.283Z,1021.06
2019-03-29T19:29:40.258Z,1021.04
2019-03-29T19:30:40.320Z,1020.97
2019-03-29T19:31:40.346Z,1021.04
2019-03-29T19:32:40.281Z,1020.99
2019-03-29T19:33:40.226Z,1020.95
2019-03-29T19:34:40.223Z,1020.98
2019-03-29T19:35:40.195Z,1020.93
2019-03-29T19:36:40.213Z,1020.91
2019-03-29T19:37:40.169Z,1020.97
2019-03-29T19:38:40.158Z,1020.94
2019-03-29T19:39:40.159Z,1020.99
2019-03-29T19:40:40.233Z,1020.93
2019-03-29T19:41:40.132Z,1020.94
2019-03-29T19:42:40.119Z,1020.93
2019-03-29T19:43:40.114Z,1020.98
2019-03-29T19:44:40.133Z,1020.98
2019-03-29T19:45:40.089Z,1020.97
2019-03-29T19:46:40.081Z,1020.92
2019-03-29T19:47:40.066Z,1020.92
2019-03-29T19:48:40.052Z,1020.88
2019-03-29T19:49:40.072Z,1020.91
2019-03-29T19:50:40.108Z,1020.90
2019-03-29T19:51:40.027Z,1020.88
2019-03-29T19:52:40.058Z,1020.91
2019-03-29T19:53:39.988Z,1020.85
2019-03-29T19:54:41.061Z,1020.90
2019-03-29T19:55:39.988Z,1020.90
2019-03-29T19:56:40.008Z,1020.89
2019-03-29T19:57:39.950Z,1020.91
2019-03-29T19:58:39.934Z,1020.88
2019-03-29T19:59:39.932Z,1020.92
2019-03-29T20:00:39.967Z,1020.82
2019-03-29T20:01:39.904Z,1020.87
2019-03-29T20:02:39.935Z,1020.85
2019-03-29T20:03:39.918Z,1020.89
2019-03-29T20:04:39.867Z,1020.84
2019-03-29T20:05:39.888Z,1020.89
2019-03-29T20:06:39.849Z,1020.87
2019-03-29T20:07:39.841Z,1020.87
2019-03-29T20:08:39.840Z,1020.88
2019-03-29T20:09:42.105Z,1020.84
2019-03-29T20:10:39.800Z,1020.84
2019-03-29T20:11:39.807Z,1020.88
2019-03-29T20:12:39.785Z,1020.86
2019-03-29T20:13:39.802Z,1020.81
2019-03-29T20:14:39.753Z,1020.87
2019-03-29T20:15:39.744Z,1020.89
2019-03-29T20:16:39.735Z,1020.85
2019-03-29T20:17:39.756Z,1020.89
2019-03-29T20:18:39.715Z,1020.80
2019-03-29T20:19:39.698Z,1020.82
2019-03-29T20:20:39.690Z,1020.79
2019-03-29T20:21:39.677Z,1020.81
2019-03-29T20:22:39.674Z,1020.78
2019-03-29T20:23:39.662Z,1020.77
2019-03-29T20:24:39.650Z,1020.82
2019-03-29T20:25:39.636Z,1020.78
2019-03-29T20:26:39.619Z,1020.80
2019-03-29T20:27:39.617Z,1020.82
2019-03-29T20:28:39.601Z,1020.79
2019-03-29T20:29:39.593Z,1020.81
2019-03-29T20:30:39.577Z,1020.77
2019-03-29T20:31:39.564Z,1020.77
2019-03-29T20:32:39.564Z,1020.77
2019-03-29T20:33:39.548Z,1020.72
2019-03-29T20:34:39.528Z,1020.74
2019-03-29T20:35:39.524Z,1020.72
2019-03-29T20:36:39.518Z,1020.71
2019-03-29T20:37:39.506Z,1020.69
2019-03-29T20:38:39.487Z,1020.76
2019-03-29T20:39:39.475Z,1020.71
2019-03-29T20:40:39.474Z,1020.68
2019-03-29T20:41:39.467Z,1020.67
2019-03-29T20:42:39.450Z,1020.72
2019-03-29T20:43:39.428Z,1020.68
2019-03-29T20:44:39.419Z,1020.63
2019-03-29T20:45:39.414Z,1020.63
2019-03-29T20:46:39.395Z,1020.62
2019-03-29T20:47:42.255Z,1020.62
2019-03-29T20:48:39.372Z,1020.67
2019-03-29T20:49:39.362Z,1020.66
2019-03-29T20:50:39.354Z,1020.65
2019-03-29T20:51:39.338Z,1020.65
2019-03-29T20:52:39.341Z,1020.61
2019-03-29T20:53:39.316Z,1020.68
2019-03-29T20:54:39.307Z,1020.67
2019-03-29T20:55:39.303Z,1020.63
2019-03-29T20:56:39.293Z,1020.67
2019-03-29T20:57:39.302Z,1020.56
2019-03-29T20:58:39.264Z,1020.59
2019-03-29T20:59:39.251Z,1020.61
2019-03-29T21:00:39.238Z,1020.51
2019-03-29T21:01:39.226Z,1020.50
2019-03-29T21:02:39.226Z,1020.49
2019-03-29T21:03:39.209Z,1020.64
2019-03-29T21:04:39.195Z,1020.62
2019-03-29T21:05:39.188Z,1020.59
2019-03-29T21:06:39.174Z,1020.60
2019-03-29T21:07:39.174Z,1020.59
2019-03-29T21:08:39.151Z,1020.57
2019-03-29T21:09:39.140Z,1020.57
2019-03-29T21:10:39.192Z,1020.58
2019-03-29T21:11:39.122Z,1020.53
2019-03-29T21:12:39.216Z,1020.48
2019-03-29T21:13:39.261Z,1020.50